Flight Track Log - Related Links

Times and Time Zones

All times are in EDT time to prevent confusion due to time zone crossing. See the SWA127 flight status page for this flight to view local times or setup timezone preferences in your user account.

Time Position Orientation Groundspeed Altitude Reporting Facility
EDT Latitude Longitude Course Direction KTS MPH feet Rate Location/Type
06:23PM 38.7553 -90.3350 301° West 151 174 2,200  Level FAA TRACON SMA TRACON (SMA)
06:23PM 38.7656 -90.3569 301° West 183 211 2,700 2,195 Climbing FAA TRACON SMA TRACON (SMA)
06:23PM 38.7733 -90.3781 295° West 208 239 3,700 2,923 Climbing FAA TRACON SMA TRACON (SMA)
06:24PM 38.7775 -90.4017 283° West 220 253 4,600 3,300 Climbing FAA TRACON SMA TRACON (SMA)
06:24PM 38.7831 -90.4333 283° West 235 270 5,900 4,350 Climbing FAA TRACON SMA TRACON (SMA)
06:24PM 38.7828 -90.4594 269° West 246 283 7,500 4,615 Climbing FAA TRACON SMA TRACON (SMA)
06:25PM 38.7711 -90.4817 236° Southwest 251 289 8,900 4,537 Climbing FAA TRACON SMA TRACON (SMA)
06:25PM 38.7461 -90.4975 206° Southwest 263 303 10,600 3,300 Climbing FAA TRACON SMA TRACON (SMA)
06:25PM 38.7228 -90.5072 198° South 280 322 11,100 1,846 Climbing FAA TRACON SMA TRACON (SMA)
06:26PM 38.6967 -90.5175 197° South 311 358 11,800 2,927 Climbing FAA TRACON SMA TRACON (SMA)
06:26PM 38.6614 -90.5306 196° South 340 391 13,100 3,512 Climbing FAA TRACON SMA TRACON (SMA)
06:26PM 38.6328 -90.5414 196° South 348 400 14,200 3,300 Climbing FAA TRACON SMA TRACON (SMA)
06:27PM 38.5969 -90.5547 196° South 350 403 15,300 3,300 Climbing FAA TRACON SMA TRACON (SMA)
06:27PM 38.5678 -90.5661 197° South 353 406 16,400 3,450 Climbing FAA TRACON SMA TRACON (SMA)
06:27PM 38.5383 -90.5772 196° South 358 412 17,600 4,000 Climbing FAA TRACON SMA TRACON (SMA)
06:28PM 38.5011 -90.5922 198° South 364 419 19,000 3,600 Climbing FAA TRACON SMA TRACON (SMA)
06:28PM 38.4711 -90.6033 196° South 366 421 20,000 2,850 Climbing FAA TRACON SMA TRACON (SMA)
06:28PM 38.4400 -90.6147 196° South 374 430 20,900 3,077 Climbing FAA TRACON SMA TRACON (SMA)
06:29PM 38.4017 -90.6308 198° South 380 437 22,000 2,927 Climbing FAA TRACON SMA TRACON (SMA)
06:29PM 38.3692 -90.6428 196° South 388 447 22,900 2,550 Climbing FAA TRACON SMA TRACON (SMA)
06:29PM 38.3367 -90.6556 197° South 394 453 23,700 2,615 Climbing FAA TRACON SMA TRACON (SMA)
06:30PM 38.2956 -90.6717 197° South 402 463 24,600 2,634 Climbing FAA TRACON SMA TRACON (SMA)
06:30PM 38.2622 -90.6839 196° South 407 468 25,500 2,550 Climbing FAA TRACON SMA TRACON (SMA)
06:30PM 38.2286 -90.6972 197° South 410 472 26,300 2,769 Climbing FAA TRACON SMA TRACON (SMA)
06:31PM 38.1864 -90.7139 197° South 413 475 27,300 2,488 Climbing FAA TRACON SMA TRACON (SMA)
06:31PM 38.1525 -90.7275 198° South 415 478 28,000 2,100 Climbing FAA TRACON SMA TRACON (SMA)
06:31PM 38.1181 -90.7406 197° South 418 481 28,700 2,308 Climbing FAA TRACON SMA TRACON (SMA)
06:32PM 38.0750 -90.7583 198° South 424 488 29,500 2,195 Climbing FAA TRACON SMA TRACON (SMA)
06:32PM 38.0411 -90.7742 200° South 424 488 30,200 1,950 Climbing FAA TRACON SMA TRACON (SMA)
06:32PM 38.0056 -90.7872 196° South 427 491 30,800 2,769 Climbing FAA TRACON SMA TRACON (SMA)
06:33PM 37.9628 -90.8053 198° South 424 488 32,000 3,073 Climbing FAA TRACON SMA TRACON (SMA)
06:33PM 37.9283 -90.8181 196° South 419 482 32,900 2,550 Climbing FAA TRACON SMA TRACON (SMA)
06:33PM 37.8950 -90.8314 198° South 414 476 33,700 2,462 Climbing FAA TRACON SMA TRACON (SMA)
06:34PM 37.8533 -90.8489 198° South 408 470 34,500 1,610 Climbing FAA TRACON SMA TRACON (SMA)
06:34PM 37.8372 -90.8564 200° South 408 470 34,800 1,622 Climbing FAA TRACON SMA TRACON (SMA)
06:35PM 37.7331 -90.9522 216° Southwest 411 473 36,500 1,789 Climbing Kansas City Center
06:36PM 37.6244 -90.9950 197° South 409 471 38,200 1,392 Climbing Kansas City Center
06:37PM 37.5153 -91.0383 197° South 406 467 39,400 857 Climbing Kansas City Center
06:38PM 37.4083 -91.0850 199° South 405 466 40,000 295 Climbing Kansas City Center
06:39PM 37.2989 -91.1306 198° South 409 471 40,000  Level Kansas City Center
06:40PM 37.1906 -91.1753 198° South 408 470 40,000  Level Kansas City Center
06:41PM 37.0831 -91.2200 198° South 406 467 40,000  Level Kansas City Center
06:42PM 36.9783 -91.2622 198° South 399 459 40,000  Level Kansas City Center
06:43PM 36.8517 -91.3147 198° South 396 456 40,000  Level Kansas City Center
06:44PM 36.7444 -91.3586 198° South 399 459 40,000  Level Kansas City Center
06:45PM 36.6317 -91.4119 201° Southwest 410 472 40,000  Level Memphis Center
06:46PM 36.5269 -91.4492 196° South 410 472 40,000  Level Memphis Center
06:47PM 36.4056 -91.4992 198° South 415 478 40,000  Level Memphis Center
06:48PM 36.3011 -91.5417 198° South 415 478 40,000  Level Memphis Center
06:49PM 36.1922 -91.5864 198° South 410 472 40,000  Level Memphis Center
06:50PM 36.0856 -91.6283 198° South 410 472 40,000  Level Memphis Center
06:51PM 35.9767 -91.6703 197° South 410 472 40,000  Level Memphis Center
06:52PM 35.8867 -91.7047 197° South 404 465 40,000  Level Memphis Center
06:53PM 35.7839 -91.7467 198° South 398 458 40,000  Level Memphis Center
06:54PM 35.6772 -91.7881 197° South 398 458 40,000  Level Memphis Center
06:55PM 35.5744 -91.8297 198° South 398 458 40,000  Level Memphis Center
06:56PM 35.4739 -91.8714 199° South 393 452 40,000  Level Memphis Center
06:57PM 35.3711 -91.9103 197° South 393 452 40,000  Level Memphis Center
06:58PM 35.2683 -91.9492 197° South 388 447 40,000  Level Memphis Center
06:59PM 35.1658 -91.9903 198° South 383 441 40,000  Level Memphis Center
07:00PM 35.0567 -92.0314 197° South 383 441 40,000  Level Memphis Center
07:01PM 34.9561 -92.0725 199° South 383 441 40,000  Level Memphis Center
07:02PM 34.8514 -92.1031 193° South 383 441 40,000  Level Memphis Center
07:03PM 34.7467 -92.1264 190° South 383 441 40,000  Level Memphis Center
07:04PM 34.6419 -92.1469 189° South 388 447 40,000  Level Memphis Center
07:05PM 34.5472 -92.2003 205° Southwest 379 436 40,000  Level Memphis Center
07:06PM 34.4567 -92.2539 206° Southwest 368 423 40,000  Level Memphis Center
07:07PM 34.3661 -92.3097 207° Southwest 368 423 40,000  Level Memphis Center
07:09PM 34.2072 -92.4114 208° Southwest 359 413 40,000  Level Fort Worth Center
07:10PM 34.1111 -92.4644 205° Southwest 370 426 40,000  Level Fort Worth Center
07:11PM 34.0194 -92.5197 207° Southwest 375 432 40,000  Level Fort Worth Center
07:12PM 33.9258 -92.5750 206° Southwest 375 432 40,000  Level Fort Worth Center
07:14PM 33.7400 -92.6828 206° Southwest 381 438 40,000  Level Fort Worth Center
07:15PM 33.6419 -92.7381 205° Southwest 381 438 40,000  Level Fort Worth Center
07:16PM 33.5519 -92.7925 207° Southwest 376 433 40,000  Level Fort Worth Center
07:17PM 33.4558 -92.8450 205° Southwest 376 433 40,000  Level Fort Worth Center
07:18PM 33.3619 -92.9019 207° Southwest 381 438 40,000  Level Fort Worth Center
07:19PM 33.2864 -92.9456 206° Southwest 381 438 40,000  Level Fort Worth Center
07:20PM 33.1861 -93.0028 206° Southwest 381 438 40,000  Level Fort Worth Center
07:21PM 33.0919 -93.0594 207° Southwest 381 438 40,000  Level Fort Worth Center
07:22PM 32.9978 -93.1086 204° Southwest 381 438 40,000  Level Fort Worth Center
07:23PM 32.9097 -93.1625 207° Southwest 376 433 40,000  Level Fort Worth Center
07:24PM 32.8175 -93.2139 205° Southwest 376 433 40,000  Level Fort Worth Center
07:25PM 32.7275 -93.2672 207° Southwest 376 433 40,000  Level Fort Worth Center
07:26PM 32.6394 -93.3158 205° Southwest 371 427 40,000  Level Fort Worth Center
07:27PM 32.5492 -93.3667 205° Southwest 365 420 40,000  Level Fort Worth Center
07:28PM 32.4589 -93.4200 206° Southwest 365 420 40,000  Level Fort Worth Center
07:29PM 32.3686 -93.4683 204° Southwest 360 414 40,000  Level Fort Worth Center
07:30PM 32.2786 -93.5214 206° Southwest 355 409 40,000  Level Fort Worth Center
07:31PM 32.1881 -93.5694 204° Southwest 355 409 40,000  Level Fort Worth Center
07:32PM 32.0981 -93.6294 209° Southwest 360 414 40,000  Level Fort Worth Center
07:34PM 31.9175 -93.7283 205° Southwest 366 421 40,000  Level Houston Center
07:35PM 31.8081 -93.7897 205° Southwest 365 420 40,000  Level Houston Center
07:36PM 31.7225 -93.8383 206° Southwest 368 423 40,000  Level Houston Center
07:37PM 31.6300 -93.8886 205° Southwest 364 419 40,000  Level Houston Center
07:38PM 31.5372 -93.9406 206° Southwest 367 422 40,000  Level Houston Center
07:39PM 31.4447 -93.9928 206° Southwest 365 420 40,000 -293 Level Houston Center
07:40PM 31.3344 -94.0536 205° Southwest 363 418 39,400 -1,610 Descending Houston Center
07:41PM 31.2422 -94.1042 205° Southwest 364 419 36,700 -1,805 Descending Houston Center
07:42PM 31.1458 -94.1575 205° Southwest 373 429 35,700 -976 Descending Houston Center
07:43PM 31.0475 -94.2119 205° Southwest 383 441 34,700 -1,756 Descending Houston Center
07:44PM 30.9508 -94.2658 206° Southwest 383 441 32,100 -2,439 Descending Houston Center
07:45PM 30.8558 -94.3172 205° Southwest 375 432 29,700 -2,274 Descending Houston Center
07:46PM 30.7664 -94.3667 205° Southwest 358 412 27,400 -2,400 Descending Houston Center
07:47PM 30.7242 -94.3900 205° Southwest 347 399 26,300 -2,164 Descending Houston Center
07:47PM 30.6839 -94.4122 205° Southwest 346 398 25,200 -2,160 Descending Houston Center
07:48PM 30.5806 -94.4686 205° Southwest 343 395 22,700 -2,311 Descending Houston Center
07:49PM 30.4992 -94.5167 207° Southwest 337 388 20,500 -2,182 Descending Houston Center
07:50PM 30.4422 -94.6017 232° Southwest 330 380 18,300 -2,032 Descending Houston Center
07:51PM 30.3922 -94.6778 233° Southwest 328 377 16,300 -2,256 Descending Houston Center
07:53PM 30.3278 -94.7775 233° Southwest 323 372 13,600 -1,597 Descending Houston Center
07:54PM 30.2756 -94.8583 233° Southwest 316 364 13,000 -293 Descending Houston Center
07:55PM 30.2247 -94.9375 233° Southwest 310 357 13,000 -244 Level Houston Center
07:56PM 30.1711 -95.0175 232° Southwest 314 361 12,500 -732 Descending Houston Center
07:57PM 30.1097 -95.0822 222° Southwest 306 352 11,500 -976 Descending Houston Center
07:58PM 30.0297 -95.1164 200° South 307 353 10,500 -969 Descending Houston Center
07:59PM 29.9258 -95.1597 200° South 287 330 9,400 -976 Descending Houston Center
08:00PM 29.8561 -95.1781 193° South 277 319 8,500 -1,293 Descending Houston Center
08:01PM 29.7836 -95.1931 190° South 276 318 6,900 -1,230 Descending Houston Center
08:02PM 29.7056 -95.2083 190° South 270 311 6,000 -492 Descending Houston Center
08:03PM 29.6336 -95.2244 191° South 264 304 5,900 -885 Descending Houston Center
08:04PM 29.5678 -95.2611 206° Southwest 271 312 4,200 -1,525 Descending Houston Center
08:05PM 29.5297 -95.3283 237° Southwest 273 314 2,800 -1,033 Descending Houston Center
08:06PM 29.5825 -95.3531 338° Northwest 202 232 2,100 -829 Descending Houston Center
08:07PM 29.6108 -95.3186 47° Northeast 141 162 1,100 -905 Descending Houston Center
08:08PM 29.6350 -95.2903 46° Northeast 147 169 200 -844 Descending Houston Center

Login

Don't have an account? Register now (free) for customized features, flight alerts, and more!